createdAt,value
2018-06-03T00:00:29.830Z,0.00
2018-06-03T00:01:29.829Z,0.00
2018-06-03T00:02:29.824Z,0.00
2018-06-03T00:03:29.827Z,0.00
2018-06-03T00:04:29.818Z,0.00
2018-06-03T00:05:29.816Z,0.00
2018-06-03T00:06:29.812Z,0.00
2018-06-03T00:07:29.833Z,0.00
2018-06-03T00:08:29.806Z,0.00
2018-06-03T00:09:29.804Z,0.00
2018-06-03T00:10:29.801Z,0.00
2018-06-03T00:11:29.804Z,0.00
2018-06-03T00:12:29.792Z,0.00
2018-06-03T00:13:29.788Z,0.00
2018-06-03T00:14:29.788Z,0.00
2018-06-03T00:15:29.784Z,0.00
2018-06-03T00:16:29.781Z,0.00
2018-06-03T00:17:29.785Z,0.00
2018-06-03T00:18:29.775Z,0.00
2018-06-03T00:19:29.771Z,0.00
2018-06-03T00:20:29.771Z,0.00
2018-06-03T00:21:29.765Z,0.00
2018-06-03T00:22:29.764Z,0.00
2018-06-03T00:23:29.760Z,0.00
2018-06-03T00:24:29.756Z,0.00
2018-06-03T00:25:29.753Z,0.00
2018-06-03T00:26:29.750Z,0.00
2018-06-03T00:27:29.750Z,0.00
2018-06-03T00:28:29.748Z,0.00
2018-06-03T00:29:29.744Z,0.00
2018-06-03T00:30:29.741Z,0.00
2018-06-03T00:31:29.737Z,0.00
2018-06-03T00:32:29.729Z,0.00
2018-06-03T00:33:29.730Z,0.00
2018-06-03T00:34:29.722Z,0.00
2018-06-03T00:35:29.720Z,0.00
2018-06-03T00:36:29.719Z,0.00
2018-06-03T00:37:29.713Z,0.00
2018-06-03T00:38:29.710Z,0.00
2018-06-03T00:39:29.709Z,0.00
2018-06-03T00:40:29.738Z,0.00
2018-06-03T00:41:29.704Z,0.00
2018-06-03T00:42:29.693Z,0.00
2018-06-03T00:43:29.731Z,0.00
2018-06-03T00:44:29.710Z,0.00
2018-06-03T00:45:29.689Z,0.00
2018-06-03T00:46:29.691Z,0.00
2018-06-03T00:47:29.681Z,0.00
2018-06-03T00:48:29.678Z,0.00
2018-06-03T00:49:29.677Z,0.00
2018-06-03T00:50:29.678Z,0.00
2018-06-03T00:51:29.668Z,0.00
2018-06-03T00:52:29.664Z,0.00
2018-06-03T00:53:29.663Z,0.00
2018-06-03T00:54:29.663Z,0.00
2018-06-03T00:55:29.662Z,0.00
2018-06-03T00:56:29.652Z,0.00
2018-06-03T00:57:29.650Z,0.00
2018-06-03T00:58:29.654Z,0.00
2018-06-03T00:59:29.644Z,0.00
2018-06-03T01:00:29.645Z,0.00
2018-06-03T01:01:29.663Z,0.00
2018-06-03T01:02:29.630Z,0.00
2018-06-03T01:03:29.631Z,0.00
2018-06-03T01:04:29.617Z,0.00
2018-06-03T01:05:29.626Z,0.00
2018-06-03T01:06:29.623Z,0.00
2018-06-03T01:07:29.620Z,0.00
2018-06-03T01:08:29.609Z,0.00
2018-06-03T01:09:29.608Z,0.00
2018-06-03T01:10:29.602Z,0.00
2018-06-03T01:11:29.613Z,0.00
2018-06-03T01:12:29.596Z,0.00
2018-06-03T01:13:29.591Z,0.00
2018-06-03T01:14:29.593Z,0.00
2018-06-03T01:15:29.591Z,0.00
2018-06-03T01:16:29.581Z,0.00
2018-06-03T01:17:29.581Z,0.00
2018-06-03T01:18:29.576Z,0.00
2018-06-03T01:19:29.574Z,0.00
2018-06-03T01:20:29.570Z,0.00
2018-06-03T01:21:29.566Z,0.00
2018-06-03T01:22:29.567Z,0.00
2018-06-03T01:23:29.568Z,0.00
2018-06-03T01:24:29.567Z,0.00
2018-06-03T01:25:29.554Z,0.00
2018-06-03T01:26:29.547Z,0.00
2018-06-03T01:27:29.545Z,0.00
2018-06-03T01:28:29.546Z,0.00
2018-06-03T01:29:29.544Z,0.00
2018-06-03T01:30:29.536Z,0.00
2018-06-03T02:02:59.466Z,0.00
2018-06-03T02:03:59.439Z,0.00
2018-06-03T02:05:52.361Z,0.00
2018-06-03T02:06:52.335Z,0.00
2018-06-03T02:08:45.296Z,0.00
2018-06-03T02:09:45.275Z,0.00
2018-06-03T02:11:38.217Z,0.00
2018-06-03T02:12:38.173Z,0.00
2018-06-03T02:14:31.127Z,0.00
2018-06-03T02:15:31.069Z,0.00
2018-06-03T02:17:23.951Z,0.00
2018-06-03T02:18:23.940Z,0.00
2018-06-03T02:20:17.871Z,0.00
2018-06-03T02:21:17.848Z,0.00
2018-06-03T02:23:10.813Z,0.00
2018-06-03T02:24:10.792Z,0.00
2018-06-03T02:26:03.781Z,0.00
2018-06-03T02:27:03.752Z,0.00
2018-06-03T02:28:56.657Z,0.00
2018-06-03T02:29:56.651Z,0.00
2018-06-03T02:31:49.561Z,0.00
2018-06-03T02:32:49.537Z,0.00
2018-06-03T02:34:42.484Z,0.00
2018-06-03T02:35:42.467Z,0.00
2018-06-03T02:37:35.377Z,0.00
2018-06-03T02:38:35.346Z,0.00
2018-06-03T02:41:19.352Z,0.00
2018-06-03T02:42:19.319Z,0.00
2018-06-03T02:44:12.242Z,0.00
2018-06-03T02:45:12.228Z,4.00
2018-06-03T02:47:05.181Z,4.00
2018-06-03T02:48:05.155Z,0.00
2018-06-03T02:49:58.057Z,4.00
2018-06-03T02:50:58.050Z,4.00
2018-06-03T02:52:51.007Z,4.00
2018-06-03T02:53:50.975Z,8.00
2018-06-03T02:55:44.001Z,8.00
2018-06-03T02:56:43.959Z,8.00
2018-06-03T02:58:37.003Z,12.00
2018-06-03T02:59:36.972Z,12.00
2018-06-03T03:01:29.926Z,16.00
2018-06-03T03:02:29.905Z,20.00
2018-06-03T03:04:22.915Z,28.00
2018-06-03T03:05:22.889Z,32.00
2018-06-03T03:07:15.819Z,40.00
2018-06-03T03:08:15.793Z,48.00
2018-06-03T03:10:08.711Z,60.00
2018-06-03T03:11:08.705Z,68.00
2018-06-03T03:13:01.630Z,88.00
2018-06-03T03:14:01.604Z,96.00
2018-06-03T03:15:54.560Z,116.00
2018-06-03T03:16:54.530Z,136.00
2018-06-03T03:18:47.497Z,164.00
2018-06-03T03:19:47.492Z,180.00
2018-06-03T03:21:40.499Z,216.00
2018-06-03T03:22:40.480Z,244.00
2018-06-03T03:24:33.509Z,288.00
2018-06-03T03:25:33.490Z,316.00
2018-06-03T03:27:26.416Z,368.00
2018-06-03T03:28:26.381Z,400.00
2018-06-03T03:30:19.327Z,456.00
2018-06-03T03:31:19.310Z,496.00
2018-06-03T03:33:12.214Z,564.00
2018-06-03T03:34:12.189Z,604.00
2018-06-03T03:36:05.161Z,688.00
2018-06-03T03:37:05.149Z,732.00
2018-06-03T03:38:58.061Z,820.00
2018-06-03T03:39:58.033Z,876.00
2018-06-03T03:41:51.038Z,976.00
2018-06-03T03:42:51.018Z,1028.00
2018-06-03T03:44:44.011Z,1132.00
2018-06-03T03:45:44.005Z,1192.00
2018-06-03T03:47:36.998Z,1316.00
2018-06-03T03:48:36.965Z,1384.00
2018-06-03T03:50:29.869Z,1512.00
2018-06-03T03:51:29.860Z,1580.00
2018-06-03T03:53:22.797Z,1712.00
2018-06-03T03:54:22.770Z,1784.00
2018-06-03T03:56:15.736Z,1916.00
2018-06-03T03:57:15.719Z,1988.00
2018-06-03T03:59:59.739Z,2176.00
2018-06-03T04:00:59.721Z,2244.00
2018-06-03T04:02:52.651Z,2380.00
2018-06-03T04:03:52.628Z,2452.00
2018-06-03T04:05:45.534Z,2596.00
2018-06-03T04:06:45.518Z,2672.00
2018-06-03T04:09:29.537Z,2876.00
2018-06-03T04:10:29.517Z,2944.00
2018-06-03T04:12:22.417Z,3076.00
2018-06-03T04:13:22.394Z,3140.00
2018-06-03T04:15:15.309Z,3256.00
2018-06-03T04:16:15.288Z,3320.00
2018-06-03T04:18:08.312Z,3436.00
2018-06-03T04:19:08.294Z,3496.00
2018-06-03T04:21:01.219Z,3612.00
2018-06-03T04:22:01.205Z,3676.00
2018-06-03T04:23:54.175Z,3800.00
2018-06-03T04:24:54.130Z,3860.00
2018-06-03T04:26:47.021Z,3976.00
2018-06-03T04:27:47.001Z,4040.00
2018-06-03T04:29:39.907Z,4152.00
2018-06-03T04:30:39.887Z,4212.00
2018-06-03T04:32:32.851Z,4320.00
2018-06-03T04:33:32.833Z,4368.00
2018-06-03T04:35:25.774Z,4472.00
2018-06-03T04:36:25.761Z,4528.00
2018-06-03T04:38:18.681Z,4640.00
2018-06-03T04:39:18.669Z,4700.00
2018-06-03T04:41:11.591Z,4808.00
2018-06-03T04:42:11.580Z,4872.00
2018-06-03T04:44:04.558Z,4964.00
2018-06-03T04:45:04.539Z,5012.00
2018-06-03T04:46:57.546Z,5104.00
2018-06-03T04:47:57.537Z,5156.00
2018-06-03T04:49:50.478Z,5256.00
2018-06-03T04:50:50.456Z,5316.00
2018-06-03T04:52:43.423Z,5432.00
2018-06-03T04:53:43.417Z,5488.00
2018-06-03T04:55:36.356Z,5604.00
2018-06-03T04:56:36.340Z,5672.00
2018-06-03T04:58:29.359Z,5340.00
2018-06-03T04:59:29.332Z,5392.00
2018-06-03T05:01:22.312Z,5496.00
2018-06-03T05:02:22.302Z,5544.00
2018-06-03T05:04:15.271Z,5636.00
2018-06-03T05:05:15.252Z,5692.00
2018-06-03T05:07:08.226Z,5784.00
2018-06-03T05:08:08.211Z,5832.00
2018-06-03T05:10:01.183Z,5924.00
2018-06-03T05:11:01.164Z,5964.00
2018-06-03T05:12:54.114Z,6032.00
2018-06-03T05:13:54.107Z,6072.00
2018-06-03T05:15:47.083Z,6160.00
2018-06-03T05:16:47.052Z,6200.00
2018-06-03T05:18:41.073Z,6272.00
2018-06-03T05:19:41.048Z,6324.00
2018-06-03T05:21:33.954Z,6380.00
2018-06-03T05:22:33.955Z,6428.00
2018-06-03T05:24:26.975Z,6484.00
2018-06-03T05:25:26.959Z,6516.00
2018-06-03T05:27:19.859Z,6588.00
2018-06-03T05:28:19.852Z,6628.00
2018-06-03T05:30:12.859Z,6688.00
2018-06-03T05:31:12.842Z,6716.00
2018-06-03T05:33:05.779Z,6788.00
2018-06-03T05:34:05.767Z,6836.00
2018-06-03T05:35:58.802Z,6924.00
2018-06-03T05:36:58.777Z,6976.00
2018-06-03T05:38:51.710Z,7060.00
2018-06-03T05:39:51.685Z,7112.00
2018-06-03T05:41:44.623Z,7184.00
2018-06-03T05:42:44.608Z,7240.00
2018-06-03T05:44:37.561Z,7316.00
2018-06-03T05:45:37.532Z,7352.00
2018-06-03T05:47:30.485Z,7420.00
2018-06-03T05:48:30.475Z,7456.00
2018-06-03T05:50:23.470Z,7520.00
2018-06-03T05:51:23.451Z,7556.00
2018-06-03T05:53:16.359Z,7584.00
2018-06-03T05:54:16.347Z,7628.00
2018-06-03T05:56:09.282Z,7704.00
2018-06-03T05:57:09.255Z,7712.00
2018-06-03T05:59:02.238Z,7780.00
2018-06-03T06:00:02.207Z,7812.00
2018-06-03T06:01:55.134Z,7828.00
2018-06-03T06:02:55.110Z,7844.00
2018-06-03T06:04:48.054Z,7904.00
2018-06-03T06:05:48.044Z,7936.00
2018-06-03T06:07:40.979Z,8020.00
2018-06-03T06:08:40.969Z,8060.00
2018-06-03T06:10:33.884Z,8160.00
2018-06-03T06:11:33.866Z,8224.00
2018-06-03T06:13:26.843Z,8332.00
2018-06-03T06:14:26.836Z,8388.00
2018-06-03T06:16:19.753Z,8512.00
2018-06-03T06:17:19.749Z,8588.00
2018-06-03T06:19:12.737Z,8752.00
2018-06-03T06:20:12.761Z,8840.00
2018-06-03T06:22:05.661Z,9012.00
2018-06-03T06:23:05.643Z,9072.00
2018-06-03T06:24:58.569Z,9200.00
2018-06-03T06:25:58.545Z,9256.00
2018-06-03T06:27:51.511Z,9356.00
2018-06-03T06:28:51.498Z,9448.00
2018-06-03T06:30:44.407Z,9508.00
2018-06-03T06:31:44.392Z,9500.00
2018-06-03T06:33:37.347Z,9480.00
2018-06-03T06:34:37.339Z,9456.00
2018-06-03T06:36:30.359Z,9348.00
2018-06-03T06:37:30.341Z,9404.00
2018-06-03T06:39:23.349Z,9320.00
2018-06-03T06:40:23.335Z,9348.00
2018-06-03T06:42:16.286Z,9252.00
2018-06-03T06:43:16.260Z,9268.00
2018-06-03T06:45:09.185Z,9280.00
2018-06-03T06:46:09.171Z,9248.00
2018-06-03T06:48:02.113Z,9276.00
2018-06-03T06:49:02.105Z,9276.00
2018-06-03T06:50:55.069Z,9264.00
2018-06-03T06:51:55.061Z,9340.00
2018-06-03T06:53:48.038Z,9348.00
2018-06-03T06:54:48.034Z,9368.00
2018-06-03T06:56:41.995Z,9428.00
2018-06-03T06:57:40.921Z,9700.00
2018-06-03T06:59:33.863Z,10848.00
2018-06-03T07:00:33.846Z,11868.00
2018-06-03T07:02:26.818Z,48256.00
2018-06-03T07:03:26.796Z,56896.00
2018-06-03T07:05:19.833Z,57856.00
2018-06-03T07:06:19.806Z,57344.00
2018-06-03T07:08:12.808Z,57664.00
2018-06-03T07:09:12.809Z,60320.00
2018-06-03T07:11:05.829Z,59392.00
2018-06-03T07:12:05.810Z,59776.00
2018-06-03T07:13:58.830Z,62752.00
2018-06-03T07:14:58.830Z,58112.00
2018-06-03T07:16:51.893Z,64448.00
2018-06-03T07:17:51.865Z,65632.00
2018-06-03T07:19:44.823Z,66720.00
2018-06-03T07:20:44.821Z,65472.00
2018-06-03T07:22:37.806Z,71264.00
2018-06-03T07:23:37.804Z,65280.00
2018-06-03T07:25:30.838Z,64256.00
2018-06-03T07:26:30.841Z,72800.00
2018-06-03T07:28:23.849Z,76128.00
2018-06-03T07:29:23.843Z,77504.00
2018-06-03T07:31:16.837Z,79136.00
2018-06-03T07:32:16.829Z,77984.00
2018-06-03T07:34:09.766Z,76704.00
2018-06-03T07:35:09.770Z,79616.00
2018-06-03T07:37:02.772Z,79264.00
2018-06-03T07:38:02.767Z,79424.00
2018-06-03T07:39:55.735Z,74720.00
2018-06-03T07:40:55.738Z,81632.00
2018-06-03T07:42:48.703Z,78720.00
2018-06-03T07:43:48.700Z,80608.00
2018-06-03T07:45:41.655Z,87424.00
2018-06-03T07:46:41.655Z,89664.00
2018-06-03T07:48:34.655Z,83712.00
2018-06-03T07:49:34.651Z,91360.00
2018-06-03T07:51:27.659Z,86080.00
2018-06-03T07:52:27.656Z,90048.00
2018-06-03T07:54:20.650Z,84128.00
2018-06-03T07:55:20.661Z,83584.00
2018-06-03T07:57:13.671Z,87712.00
2018-06-03T07:58:13.664Z,82752.00
2018-06-03T08:00:06.651Z,75296.00
2018-06-03T08:01:06.646Z,79584.00
2018-06-03T08:02:59.671Z,86624.00
2018-06-03T08:03:59.660Z,86752.00
2018-06-03T08:05:52.655Z,94496.00
2018-06-03T08:06:52.646Z,90176.00
2018-06-03T08:08:45.659Z,76416.00
2018-06-03T08:09:45.655Z,78720.00
2018-06-03T08:11:38.692Z,80288.00
2018-06-03T08:12:38.688Z,76256.00
2018-06-03T08:14:31.639Z,87008.00
2018-06-03T08:15:31.649Z,85312.00
2018-06-03T08:17:24.711Z,80000.00
2018-06-03T08:18:24.699Z,83616.00
2018-06-03T08:20:17.686Z,89280.00
2018-06-03T08:21:17.700Z,90336.00
2018-06-03T08:23:10.696Z,83712.00
2018-06-03T08:24:10.696Z,89088.00
2018-06-03T08:26:03.678Z,80128.00
2018-06-03T08:27:03.662Z,87872.00
2018-06-03T08:28:56.701Z,80352.00
2018-06-03T08:29:56.697Z,83584.00
2018-06-03T08:31:49.709Z,90432.00
2018-06-03T08:32:49.703Z,82880.00
2018-06-03T08:34:42.698Z,86304.00
2018-06-03T08:35:42.704Z,83424.00
2018-06-03T08:37:35.673Z,81568.00
2018-06-03T08:38:35.669Z,75232.00
2018-06-03T08:40:28.695Z,77920.00
2018-06-03T08:41:28.705Z,79744.00
2018-06-03T08:43:21.664Z,83776.00
2018-06-03T08:44:21.662Z,82464.00
2018-06-03T08:46:14.657Z,90688.00
2018-06-03T08:47:14.660Z,91936.00
2018-06-03T08:48:14.682Z,100544.00
2018-06-03T08:49:14.700Z,109792.00
2018-06-03T08:50:14.716Z,114496.00
2018-06-03T08:51:14.732Z,112352.00
2018-06-03T08:52:14.753Z,124928.00
2018-06-03T08:53:14.768Z,111936.00
2018-06-03T08:54:14.785Z,89312.00
2018-06-03T08:55:14.809Z,81856.00
2018-06-03T08:56:14.822Z,86624.00
2018-06-03T08:57:14.915Z,91040.00
2018-06-03T08:58:14.862Z,96800.00
2018-06-03T08:59:14.871Z,108512.00
2018-06-03T09:00:14.891Z,113760.00
2018-06-03T09:01:14.912Z,110048.00
2018-06-03T09:02:14.936Z,105728.00
2018-06-03T09:03:14.954Z,115840.00
2018-06-03T09:04:14.971Z,116768.00
2018-06-03T09:05:14.981Z,113728.00
2018-06-03T09:06:15.010Z,115936.00
2018-06-03T09:07:15.026Z,122080.00
2018-06-03T09:08:15.049Z,111296.00
2018-06-03T09:09:15.052Z,112256.00
2018-06-03T09:10:15.085Z,103968.00
2018-06-03T09:11:15.112Z,102304.00
2018-06-03T09:12:15.120Z,107648.00
2018-06-03T09:13:15.138Z,107872.00
2018-06-03T09:14:15.160Z,94752.00
2018-06-03T09:15:15.178Z,98432.00
2018-06-03T09:16:15.201Z,102560.00
2018-06-03T09:17:15.219Z,106176.00
2018-06-03T09:18:15.236Z,101248.00
2018-06-03T09:19:15.271Z,97824.00
2018-06-03T09:20:15.276Z,95616.00
2018-06-03T09:21:15.288Z,92128.00
2018-06-03T09:22:15.315Z,95840.00
2018-06-03T09:23:15.337Z,95776.00
2018-06-03T09:24:15.352Z,92672.00
2018-06-03T09:25:15.370Z,90272.00
2018-06-03T09:26:15.388Z,86080.00
2018-06-03T09:27:15.413Z,87776.00
2018-06-03T09:28:15.427Z,87360.00
2018-06-03T09:29:15.445Z,90848.00
2018-06-03T09:30:15.466Z,88352.00
2018-06-03T09:31:15.481Z,82368.00
2018-06-03T09:32:15.495Z,83840.00
2018-06-03T09:33:15.529Z,87584.00
2018-06-03T09:34:15.533Z,86624.00
2018-06-03T09:35:15.556Z,84096.00
2018-06-03T09:36:15.587Z,84608.00
2018-06-03T09:37:15.588Z,82656.00
2018-06-03T09:38:15.605Z,79552.00
2018-06-03T09:39:15.615Z,20672.00
2018-06-03T09:40:16.613Z,20832.00
2018-06-03T09:41:15.658Z,72480.00
2018-06-03T09:42:15.678Z,70592.00
2018-06-03T09:43:15.693Z,68608.00
2018-06-03T09:44:15.713Z,66400.00
2018-06-03T09:45:15.725Z,61280.00
2018-06-03T09:46:15.756Z,61184.00
2018-06-03T09:47:15.757Z,66592.00
2018-06-03T09:48:15.774Z,65536.00
2018-06-03T09:49:15.785Z,47520.00
2018-06-03T09:50:15.801Z,68672.00
2018-06-03T09:51:15.826Z,67168.00
2018-06-03T09:52:15.838Z,71712.00
2018-06-03T09:53:15.936Z,49472.00
2018-06-03T09:54:15.868Z,54880.00
2018-06-03T09:55:15.886Z,74528.00
2018-06-03T09:56:15.902Z,70816.00
2018-06-03T09:57:15.922Z,49344.00
2018-06-03T09:58:15.943Z,48576.00
2018-06-03T09:59:15.944Z,47520.00
2018-06-03T10:00:15.982Z,24608.00
2018-06-03T10:01:15.975Z,24544.00
2018-06-03T10:02:15.983Z,27392.00
2018-06-03T10:03:16.005Z,80608.00
2018-06-03T10:04:16.020Z,77952.00
2018-06-03T10:05:16.035Z,77888.00
2018-06-03T10:06:16.049Z,77920.00
2018-06-03T10:07:16.057Z,77216.00
2018-06-03T10:08:16.075Z,76736.00
2018-06-03T10:09:17.043Z,75808.00
2018-06-03T10:10:16.134Z,76128.00
2018-06-03T10:11:16.118Z,75264.00
2018-06-03T10:12:16.128Z,79424.00
2018-06-03T10:13:16.154Z,80384.00
2018-06-03T10:14:16.160Z,72512.00
2018-06-03T10:15:16.170Z,68896.00
2018-06-03T10:16:16.190Z,72000.00
2018-06-03T10:17:16.209Z,83040.00
2018-06-03T10:18:16.222Z,86080.00
2018-06-03T10:19:16.238Z,84448.00
2018-06-03T10:20:16.250Z,82272.00
2018-06-03T10:21:16.271Z,80416.00
2018-06-03T10:22:16.284Z,82496.00
2018-06-03T10:23:16.310Z,85792.00
2018-06-03T10:24:16.318Z,83136.00
2018-06-03T10:25:16.331Z,79584.00
2018-06-03T10:26:16.346Z,77760.00
2018-06-03T10:27:16.360Z,76448.00
2018-06-03T10:28:16.381Z,77920.00
2018-06-03T10:29:16.402Z,74272.00
2018-06-03T10:30:16.412Z,71456.00
2018-06-03T10:31:16.426Z,73056.00
2018-06-03T10:32:16.445Z,79744.00
2018-06-03T10:33:16.459Z,81824.00
2018-06-03T10:34:16.479Z,80896.00
2018-06-03T10:35:16.495Z,79776.00
2018-06-03T10:36:16.520Z,77216.00
2018-06-03T10:37:16.545Z,66560.00
2018-06-03T10:38:16.544Z,62464.00
2018-06-03T10:39:16.557Z,32544.00
2018-06-03T10:40:16.572Z,53056.00
2018-06-03T10:41:16.603Z,30112.00
2018-06-03T10:42:16.609Z,29216.00
2018-06-03T10:43:16.628Z,30752.00
2018-06-03T10:44:16.664Z,59264.00
2018-06-03T10:45:16.672Z,63520.00
2018-06-03T10:46:16.673Z,64608.00
2018-06-03T10:47:16.685Z,46304.00
2018-06-03T10:48:16.696Z,60000.00
2018-06-03T10:49:16.710Z,61184.00
2018-06-03T10:50:16.715Z,42944.00
2018-06-03T10:51:16.728Z,44320.00
2018-06-03T10:52:16.748Z,57056.00
2018-06-03T10:53:16.760Z,58112.00
2018-06-03T10:54:16.782Z,56928.00
2018-06-03T10:55:16.807Z,50016.00
2018-06-03T10:56:16.803Z,46816.00
2018-06-03T10:57:16.851Z,34208.00
2018-06-03T10:58:16.833Z,33024.00
2018-06-03T10:59:16.839Z,33024.00
2018-06-03T11:00:16.884Z,35456.00
2018-06-03T11:01:16.885Z,45152.00
2018-06-03T11:02:16.969Z,49760.00
2018-06-03T11:03:16.884Z,53184.00
2018-06-03T11:04:16.892Z,56288.00
2018-06-03T11:05:16.909Z,55456.00
2018-06-03T11:06:16.913Z,55008.00
2018-06-03T11:07:16.940Z,55392.00
2018-06-03T11:08:16.933Z,56800.00
2018-06-03T11:09:16.941Z,56224.00
2018-06-03T11:10:16.952Z,49344.00
2018-06-03T11:11:16.961Z,48608.00
2018-06-03T11:12:16.981Z,52480.00
2018-06-03T11:13:16.994Z,53728.00
2018-06-03T11:14:17.009Z,41280.00
2018-06-03T11:15:17.016Z,41184.00
2018-06-03T11:16:17.024Z,53280.00
2018-06-03T11:17:17.055Z,56032.00
2018-06-03T11:18:17.061Z,56672.00
2018-06-03T11:19:17.060Z,54560.00
2018-06-03T11:20:17.080Z,55744.00
2018-06-03T11:21:17.080Z,54624.00
2018-06-03T11:22:17.089Z,55360.00
2018-06-03T11:23:17.099Z,56096.00
2018-06-03T11:24:17.113Z,54656.00
2018-06-03T11:25:17.126Z,49632.00
2018-06-03T11:26:17.133Z,46400.00
2018-06-03T11:27:17.166Z,43904.00
2018-06-03T11:28:17.153Z,42816.00
2018-06-03T11:29:17.171Z,41504.00
2018-06-03T11:30:17.177Z,41216.00
2018-06-03T11:31:17.184Z,41184.00
2018-06-03T11:32:17.198Z,40320.00
2018-06-03T11:33:17.209Z,40736.00
2018-06-03T11:34:17.217Z,41792.00
2018-06-03T11:35:17.223Z,41088.00
2018-06-03T11:36:17.237Z,40672.00
2018-06-03T11:37:17.239Z,40928.00
2018-06-03T11:38:17.258Z,42112.00
2018-06-03T11:39:17.265Z,43232.00
2018-06-03T11:40:17.267Z,44320.00
2018-06-03T11:41:17.288Z,47424.00
2018-06-03T11:42:17.297Z,48928.00
2018-06-03T11:43:17.308Z,47232.00
2018-06-03T11:44:17.314Z,48864.00
2018-06-03T11:45:17.327Z,48800.00
2018-06-03T11:46:17.332Z,50464.00
2018-06-03T11:47:17.364Z,52000.00
2018-06-03T11:48:17.355Z,52736.00
2018-06-03T11:49:17.363Z,52448.00
2018-06-03T11:50:17.374Z,51584.00
2018-06-03T11:51:17.394Z,48160.00
2018-06-03T11:52:17.394Z,54336.00
2018-06-03T11:53:17.402Z,59456.00
2018-06-03T11:54:17.410Z,58016.00
2018-06-03T11:55:17.428Z,60192.00
2018-06-03T11:56:17.493Z,63264.00
2018-06-03T11:57:17.464Z,65472.00
2018-06-03T11:58:17.475Z,65056.00
2018-06-03T11:59:17.463Z,64128.00
2018-06-03T12:00:17.469Z,63232.00
2018-06-03T12:01:17.488Z,62272.00
2018-06-03T12:02:17.503Z,62048.00
2018-06-03T12:03:17.546Z,63264.00
2018-06-03T12:04:17.520Z,65920.00
2018-06-03T12:05:17.526Z,66656.00
2018-06-03T12:06:17.533Z,67456.00
2018-06-03T12:07:17.562Z,68928.00
2018-06-03T12:08:17.661Z,72448.00
2018-06-03T12:09:17.584Z,77408.00
2018-06-03T12:10:17.592Z,81472.00
2018-06-03T12:11:17.601Z,84416.00
2018-06-03T12:12:17.620Z,82560.00
2018-06-03T12:13:17.631Z,80096.00
2018-06-03T12:14:17.635Z,70688.00
2018-06-03T12:15:17.651Z,80608.00
2018-06-03T12:16:17.687Z,84128.00
2018-06-03T12:17:17.686Z,74368.00
2018-06-03T12:18:17.710Z,66464.00
2018-06-03T12:19:17.708Z,62304.00
2018-06-03T12:20:17.719Z,71904.00
2018-06-03T12:21:17.737Z,83008.00
2018-06-03T12:22:17.755Z,80000.00
2018-06-03T12:23:17.765Z,73632.00
2018-06-03T12:24:17.772Z,76992.00
2018-06-03T12:25:17.785Z,68672.00
2018-06-03T12:26:17.798Z,80960.00
2018-06-03T12:27:17.816Z,99360.00
2018-06-03T12:28:17.846Z,104544.00
2018-06-03T12:29:17.836Z,102144.00
2018-06-03T12:30:17.851Z,100640.00
2018-06-03T12:31:17.861Z,107136.00
2018-06-03T12:32:17.875Z,110560.00
2018-06-03T12:33:17.894Z,78592.00
2018-06-03T12:34:17.903Z,36608.00
2018-06-03T12:35:17.954Z,26912.00
2018-06-03T12:36:17.941Z,25888.00
2018-06-03T12:37:17.943Z,25216.00
2018-06-03T12:38:17.950Z,24800.00
2018-06-03T12:39:17.958Z,24480.00
2018-06-03T12:40:17.969Z,24256.00
2018-06-03T12:41:17.993Z,24096.00
2018-06-03T12:42:18.006Z,24000.00
2018-06-03T12:43:18.011Z,23872.00
2018-06-03T12:44:18.020Z,23680.00
2018-06-03T12:45:18.027Z,23328.00
2018-06-03T12:46:18.039Z,23008.00
2018-06-03T12:47:18.053Z,22688.00
2018-06-03T12:48:18.064Z,22432.00
2018-06-03T12:49:18.090Z,22112.00
2018-06-03T12:50:18.080Z,21728.00
2018-06-03T12:51:18.086Z,21440.00
2018-06-03T12:52:18.096Z,21344.00
2018-06-03T12:53:18.104Z,21472.00
2018-06-03T12:54:18.108Z,21632.00
2018-06-03T12:55:18.117Z,21984.00
2018-06-03T12:56:18.127Z,22272.00
2018-06-03T12:57:18.134Z,22752.00
2018-06-03T12:58:18.140Z,23264.00
2018-06-03T12:59:18.150Z,23552.00
2018-06-03T13:00:18.152Z,23776.00
2018-06-03T13:01:18.168Z,23904.00
2018-06-03T13:02:18.166Z,23840.00
2018-06-03T13:03:18.174Z,23648.00
2018-06-03T13:04:18.180Z,23424.00
2018-06-03T13:05:18.187Z,23104.00
2018-06-03T13:06:18.238Z,22784.00
2018-06-03T13:07:18.201Z,22400.00
2018-06-03T13:08:18.211Z,22112.00
2018-06-03T13:09:18.212Z,21888.00
2018-06-03T13:10:18.221Z,21696.00
2018-06-03T13:11:18.231Z,21536.00
2018-06-03T13:12:18.235Z,21312.00
2018-06-03T13:13:18.252Z,21024.00
2018-06-03T13:14:18.246Z,20704.00
2018-06-03T13:15:18.249Z,20384.00
2018-06-03T13:16:18.255Z,20032.00
2018-06-03T13:17:18.304Z,19680.00
2018-06-03T13:18:18.273Z,19328.00
2018-06-03T13:19:18.272Z,19008.00
2018-06-03T13:20:18.300Z,18688.00
2018-06-03T13:21:18.287Z,18368.00
2018-06-03T13:22:18.300Z,18048.00
2018-06-03T13:23:18.305Z,17696.00
2018-06-03T13:24:18.330Z,17264.00
2018-06-03T13:25:18.315Z,16992.00
2018-06-03T13:26:18.314Z,16720.00
2018-06-03T13:27:18.323Z,16300.00
2018-06-03T13:28:18.326Z,15852.00
2018-06-03T13:29:18.334Z,15492.00
2018-06-03T13:30:18.334Z,15176.00
2018-06-03T13:31:18.341Z,14796.00
2018-06-03T13:32:18.347Z,14604.00
2018-06-03T13:33:18.352Z,14552.00
2018-06-03T13:34:18.356Z,14548.00
2018-06-03T13:35:18.362Z,14452.00
2018-06-03T13:36:18.367Z,14216.00
2018-06-03T13:37:18.375Z,13936.00
2018-06-03T13:38:18.379Z,14012.00
2018-06-03T13:39:18.386Z,14368.00
2018-06-03T13:40:18.396Z,14912.00
2018-06-03T13:41:18.386Z,14864.00
2018-06-03T13:42:18.397Z,14428.00
2018-06-03T13:43:18.391Z,13588.00
2018-06-03T13:44:18.405Z,12932.00
2018-06-03T13:45:18.414Z,12684.00
2018-06-03T13:46:18.423Z,12736.00
2018-06-03T13:47:18.422Z,12752.00
2018-06-03T13:48:18.425Z,13224.00
2018-06-03T13:49:18.426Z,13612.00
2018-06-03T13:50:18.434Z,13672.00
2018-06-03T13:51:18.435Z,13500.00
2018-06-03T13:52:18.444Z,13244.00
2018-06-03T13:53:18.450Z,13000.00
2018-06-03T13:54:18.451Z,12772.00
2018-06-03T13:55:18.476Z,12940.00
2018-06-03T13:56:18.470Z,13128.00
2018-06-03T13:57:18.488Z,13268.00
2018-06-03T13:58:18.470Z,13332.00
2018-06-03T13:59:18.493Z,13244.00
2018-06-03T14:00:18.475Z,13056.00
2018-06-03T14:01:18.482Z,12896.00
2018-06-03T14:02:18.481Z,12696.00
2018-06-03T14:03:18.482Z,12532.00
2018-06-03T14:04:18.493Z,12296.00
2018-06-03T14:05:18.503Z,12040.00
2018-06-03T14:06:18.511Z,11884.00
2018-06-03T14:07:18.508Z,11720.00
2018-06-03T14:08:18.512Z,11572.00
2018-06-03T14:09:18.511Z,11340.00
2018-06-03T14:10:18.517Z,11376.00
2018-06-03T14:11:18.530Z,11368.00
2018-06-03T14:12:18.541Z,11420.00
2018-06-03T14:13:18.526Z,11468.00
2018-06-03T14:14:18.534Z,11516.00
2018-06-03T14:15:18.536Z,11504.00
2018-06-03T14:16:18.543Z,11436.00
2018-06-03T14:17:18.546Z,11368.00
2018-06-03T14:18:18.551Z,11252.00
2018-06-03T14:19:18.553Z,11124.00
2018-06-03T14:20:18.544Z,10960.00
2018-06-03T14:21:18.556Z,10780.00
2018-06-03T14:22:18.566Z,10596.00
2018-06-03T14:23:18.553Z,10412.00
2018-06-03T14:24:18.570Z,10224.00
2018-06-03T14:25:18.564Z,10020.00
2018-06-03T14:26:18.593Z,9832.00
2018-06-03T14:27:18.576Z,9692.00
2018-06-03T14:28:18.582Z,9548.00
2018-06-03T14:29:18.583Z,9292.00
2018-06-03T14:30:18.605Z,9012.00
2018-06-03T14:31:18.594Z,8800.00
2018-06-03T14:32:18.599Z,8664.00
2018-06-03T14:33:18.597Z,8604.00
2018-06-03T14:34:18.603Z,8572.00
2018-06-03T14:35:18.604Z,8504.00
2018-06-03T14:36:18.608Z,8384.00
2018-06-03T14:37:18.617Z,8264.00
2018-06-03T14:38:18.620Z,8132.00
2018-06-03T14:39:18.622Z,8024.00
2018-06-03T14:40:18.611Z,7860.00
2018-06-03T14:41:18.651Z,7696.00
2018-06-03T14:42:18.626Z,7552.00